ADDS METAR Data INFO
IDs: Format: Raw Decoded Include TAF

Data at: 2000 UTC 19 Oct 2017

KOOA 191955Z AUTO 16008KT 10SM CLR 24/11 A3008 RMK AO2 T02430106
KOOA 191935Z AUTO 16010G14KT 10SM CLR 24/10 A3009 RMK AO2 T02420104
KOOA 191915Z AUTO 16008KT 10SM CLR 24/10 A3010 RMK AO2 T02400102
KOOA 191855Z AUTO 13009G14KT 10SM CLR 24/10 A3010 RMK AO2 T02360100
KOOA 191835Z AUTO 14009KT 10SM CLR 24/10 A3011 RMK AO2 T02370095
KOOA 191815Z AUTO 14007KT 10SM CLR 23/10 A3012 RMK AO2 T02320096
KOOA 191755Z AUTO 13009KT 10SM CLR 23/09 A3013 RMK AO2 T02270090 10227 20075
KOOA 191735Z AUTO 15009KT 10SM CLR 22/08 A3013 RMK AO2 T02220081
KOOA 191715Z AUTO 14009KT 10SM CLR 22/07 A3014 RMK AO2 T02200067
KOOA 191655Z AUTO 13009KT 10SM CLR 22/05 A3015 RMK AO2 T02150047
KOOA 191635Z AUTO 12010KT 10SM CLR 21/02 A3015 RMK AO2 T02080023
KOOA 191615Z AUTO 12012KT 10SM CLR 20/02 A3015 RMK AO2 T02000020
KOOA 191555Z AUTO 13012KT 10SM CLR 19/03 A3015 RMK AO2 T01910025
KOOA 191535Z AUTO 12012G16KT 10SM CLR 18/03 A3015 RMK AO2 T01800026
KOOA 191515Z AUTO 12009KT 10SM CLR 18/02 A3015 RMK AO2 T01750021
KOOA 191455Z AUTO 11012KT 10SM CLR 17/01 A3015 RMK AO2 T01700014
KOOA 191435Z AUTO 11008KT 10SM CLR 16/03 A3015 RMK AO2 T01550027
KOOA 191415Z AUTO 10008KT 10SM CLR 14/04 A3014 RMK AO2 T01380040
KOOA 191355Z AUTO 10010KT 10SM CLR 13/04 A3014 RMK AO2 T01250041
KOOA 191335Z AUTO 09008KT 10SM CLR 11/05 A3013 RMK AO2 T01070049
KOOA 191315Z AUTO 08007KT 10SM CLR 09/05 A3013 RMK AO2 T00930052
KOOA 191255Z AUTO 07007KT 10SM CLR 08/05 A3012 RMK AO2 T00820050
KOOA 191235Z AUTO 07007KT 10SM CLR 08/05 A3011 RMK AO2 T00790049
KOOA 191215Z AUTO 06007KT 10SM CLR 08/05 A3012 RMK AO2 T00750054
KOOA 191155Z AUTO 07006KT 10SM CLR 08/06 A3011 RMK AO2 T00840056 10100 20070
KOOA 191135Z AUTO 06008KT 10SM CLR 08/06 A3010 RMK AO2 T00840061
KOOA 191115Z AUTO 05008KT 10SM CLR 08/06 A3010 RMK AO2 T00800061
KOOA 191055Z AUTO 04004KT 10SM CLR 08/08 A3010 RMK AO2 T00820077
KOOA 191035Z AUTO 00000KT 7SM CLR 08/07 A3010 RMK AO2 T00750070
KOOA 191015Z AUTO 00000KT 10SM CLR 07/07 A3009 RMK AO2 T00720066
KOOA 190955Z AUTO 00000KT 7SM CLR 08/07 A3009 RMK AO2 T00770069
KOOA 190935Z AUTO 00000KT 10SM CLR 08/07 A3008 RMK AO2 T00820074
KOOA 190915Z AUTO 34003KT 10SM CLR 09/08 A3008 RMK AO2 T00900080
KOOA 190855Z AUTO 34003KT 10SM CLR 09/08 A3007 RMK AO2 T00870079
KOOA 190835Z AUTO 00000KT 10SM CLR 09/08 A3007 RMK AO2 T00900079
KOOA 190815Z AUTO 00000KT 10SM CLR 09/08 A3006 RMK AO2 T00940080
KOOA 190755Z AUTO 24003KT 10SM CLR 09/08 A3006 RMK AO2 T00930078
KOOA 190735Z AUTO 24003KT 10SM CLR 09/08 A3005 RMK AO2 T00920079
KOOA 190715Z AUTO 23004KT 10SM CLR 09/08 A3005 RMK AO2 T00910078
KOOA 190655Z AUTO 25004KT 10SM CLR 09/08 A3005 RMK AO2 T00930077
KOOA 190635Z AUTO 24004KT 10SM CLR 10/08 A3005 RMK AO2 T00970080
KOOA 190615Z AUTO 22005KT 10SM CLR 10/08 A3004 RMK AO2 T00950078
KOOA 190555Z AUTO 21005KT 10SM CLR 10/08 A3004 RMK AO2 T01000080 10146 20096 402330070
KOOA 190535Z AUTO 21004KT 10SM CLR 10/08 A3004 RMK AO2 T01030081
KOOA 190515Z AUTO 22004KT 10SM CLR 10/08 A3004 RMK AO2 T01010079
KOOA 190455Z AUTO 22004KT 10SM CLR 11/08 A3004 RMK AO2 T01070081
KOOA 190435Z AUTO 21005KT 10SM CLR 11/08 A3004 RMK AO2 T01050080
KOOA 190415Z AUTO 20006KT 10SM CLR 10/08 A3004 RMK AO2 T00960076
KOOA 190355Z AUTO 20006KT 10SM CLR 10/08 A3004 RMK AO2 T01020077
KOOA 190335Z AUTO 20005KT 10SM CLR 11/08 A3004 RMK AO2 T01100080
KOOA 190315Z AUTO 20005KT 10SM CLR 12/08 A3005 RMK AO2 T01190084
KOOA 190255Z AUTO 18005KT 10SM CLR 12/09 A3005 RMK AO2 T01220085
KOOA 190235Z AUTO 19005KT 10SM CLR 13/09 A3004 RMK AO2 T01300086
KOOA 190215Z AUTO 19005KT 10SM CLR 14/09 A3004 RMK AO2 T01370087
KOOA 190155Z AUTO 00000KT 10SM CLR 13/09 A3004 RMK AO2 T01270085
KOOA 190135Z AUTO 00000KT 10SM CLR 13/09 A3003 RMK AO2 T01320087
KOOA 190115Z AUTO 22005KT 10SM CLR 14/09 A3002 RMK AO2 T01390087
KOOA 190055Z AUTO 22006KT 10SM CLR 14/09 A3002 RMK AO2 T01410090
KOOA 190035Z AUTO 21005KT 10SM CLR 14/09 A3002 RMK AO2 T01380090
KOOA 190015Z AUTO 20008KT 10SM CLR 14/09 A3000 RMK AO2 T01400090
KOOA 182355Z AUTO 19008KT 10SM CLR 15/09 A2999 RMK AO2 T01480087 10233 20148
KOOA 182335Z AUTO 19007KT 10SM CLR 16/09 A2999 RMK AO2 T01620092
KOOA 182315Z AUTO 19007KT 10SM CLR 18/10 A2999 RMK AO2 T01840095
KOOA 182255Z AUTO 20007KT 10SM CLR 20/09 A2998 RMK AO2 T02020092
KOOA 182235Z AUTO 20009KT 10SM CLR 22/09 A2997 RMK AO2 T02170089
KOOA 182215Z AUTO 21010KT 10SM CLR 22/09 A2997 RMK AO2 T02230088
KOOA 182155Z AUTO 20011KT 10SM CLR 23/08 A2997 RMK AO2 T02260081
KOOA 182135Z AUTO 20014KT 10SM CLR 23/08 A2996 RMK AO2 T02300078
KOOA 182115Z AUTO 20016KT 10SM CLR 23/08 A2995 RMK AO2 T02300076
KOOA 182055Z AUTO 20014KT 10SM CLR 23/08 A2995 RMK AO2 T02320076
KOOA 182035Z AUTO 20015G22KT 10SM CLR 23/07 A2996 RMK AO2 T02330074
KOOA 182015Z AUTO 20015G21KT 10SM CLR 23/08 A2996 RMK AO2 T02300075
KOOA 181955Z AUTO 21016KT 10SM CLR 23/08 A2997 RMK AO2 T02300077
KOOA 181935Z AUTO 18012G21KT 10SM CLR 23/08 A2997 RMK AO2 T02290076
KOOA 181915Z AUTO 18013G20KT 10SM CLR 23/08 A2998 RMK AO2 T02270075
KOOA 181855Z AUTO 19015G21KT 10SM CLR 23/07 A2998 RMK AO2 T02270073
KOOA 181835Z AUTO 21015G20KT 10SM CLR 22/08 A2998 RMK AO2 T02230076
KOOA 181815Z AUTO 20014G20KT 10SM CLR 22/08 A2999 RMK AO2 T02200076
KOOA 181755Z AUTO 22015G20KT 10SM CLR 22/08 A3001 RMK AO2 T02160076 10216 20070
KOOA 181735Z AUTO 20014G18KT 10SM CLR 21/08 A3002 RMK AO2 T02090077
KOOA 181715Z AUTO 20013G19KT 10SM CLR 20/08 A3002 RMK AO2 T02040080
KOOA 181655Z AUTO 21013KT 10SM CLR 20/08 A3002 RMK AO2 T01950079
KOOA 181635Z AUTO 20012G17KT 10SM CLR 19/08 A3003 RMK AO2 T01850079
KOOA 181615Z AUTO 20013KT 10SM CLR 18/08 A3003 RMK AO2 T01800078
KOOA 181555Z AUTO 21014KT 10SM CLR 17/08 A3003 RMK AO2 T01730077
KOOA 181535Z AUTO 21013KT 10SM CLR 17/08 A3004 RMK AO2 T01660078
KOOA 181515Z AUTO 21013KT 10SM CLR 16/08 A3004 RMK AO2 T01600078
KOOA 181455Z AUTO 20013KT 10SM CLR 15/08 A3004 RMK AO2 T01510080
KOOA 181435Z AUTO 20012KT 10SM CLR 14/08 A3004 RMK AO2 T01400080
KOOA 181415Z AUTO 20011G16KT 10SM CLR 13/08 A3005 RMK AO2 T01290080
KOOA 181355Z AUTO 19009KT 10SM CLR 12/08 A3005 RMK AO2 T01150081
KOOA 181335Z AUTO 18010KT 10SM CLR 11/08 A3005 RMK AO2 T01050077
KOOA 181315Z AUTO 18007KT 10SM CLR 09/07 A3005 RMK AO2 T00910074
KOOA 181255Z AUTO 17007KT 10SM CLR 08/07 A3005 RMK AO2 T00800065
KOOA 181235Z AUTO 18006KT 10SM CLR 07/06 A3005 RMK AO2 T00720060
KOOA 181215Z AUTO 17005KT 10SM CLR 07/06 A3005 RMK AO2 T00710057
KOOA 181155Z AUTO 17007KT 10SM CLR 08/06 A3004 RMK AO2 T00750060 10107 20075
KOOA 181135Z AUTO 18008KT 10SM CLR 08/06 A3005 RMK AO2 T00760059
KOOA 181115Z AUTO 19008KT 10SM CLR 08/06 A3005 RMK AO2 T00800063
KOOA 181055Z AUTO 19009KT 10SM CLR 08/06 A3004 RMK AO2 T00780061
KOOA 181035Z AUTO 18009KT 10SM CLR 08/06 A3004 RMK AO2 T00800062
KOOA 181015Z AUTO 18008KT 10SM CLR 08/06 A3004 RMK AO2 T00820063
KOOA 180955Z AUTO 19008KT 10SM CLR 09/07 A3004 RMK AO2 T00900066
KOOA 180935Z AUTO 19007KT 10SM CLR 09/07 A3004 RMK AO2 T00850065
KOOA 180915Z AUTO 19007KT 10SM CLR 08/06 A3004 RMK AO2 T00840064
KOOA 180855Z AUTO 19007KT 10SM CLR 08/06 A3005 RMK AO2 T00820062
KOOA 180835Z AUTO 19007KT 10SM CLR 10/07 A3005 RMK AO2 T00950067
KOOA 180815Z AUTO 20007KT 10SM CLR 10/07 A3005 RMK AO2 T01010070